Time;durP1;ratioP1;P1;durP2;ratioP2;P2;SDS_P1;SDS_P2;PMS_P1;PMS_P2;Temp;Humidity;BMP_temperature;BMP_pressure;BME280_temperature;BME280_humidity;BME280_pressure;Samples;Min_cycle;Max_cycle;Signal;HPM_P1;HPM_P2
2024/01/05 00:01:23;;;;;;;15.75;7.03;;;3.10;99.90;;;;;;5032735;28;20064;-73
2024/01/05 00:03:48;;;;;;;15.48;7.25;;;3.30;99.90;;;;;;5032922;28;20065;-73
2024/01/05 00:06:14;;;;;;;12.68;6.35;;;3.20;99.90;;;;;;5032612;28;20037;-73
2024/01/05 00:08:39;;;;;;;13.57;6.82;;;3.20;99.90;;;;;;5032612;28;20045;-73
2024/01/05 00:11:05;;;;;;;15.07;8.13;;;3.10;99.90;;;;;;5032466;28;20493;-73
2024/01/05 00:13:31;;;;;;;10.05;6.63;;;3.10;99.90;;;;;;4998816;28;20505;-73
2024/01/05 00:15:57;;;;;;;13.00;6.60;;;3.30;99.90;;;;;;5032679;28;20034;-73
2024/01/05 00:18:22;;;;;;;13.82;6.88;;;3.10;99.90;;;;;;5032321;28;20092;-73
2024/01/05 00:20:48;;;;;;;13.55;7.63;;;3.30;99.90;;;;;;5032443;28;20072;-73
2024/01/05 00:23:14;;;;;;;14.80;7.05;;;3.30;99.90;;;;;;5032391;28;20122;-73
2024/01/05 00:25:39;;;;;;;15.95;9.20;;;3.30;99.90;;;;;;5032198;28;20042;-73
2024/01/05 00:28:05;;;;;;;12.30;7.75;;;3.20;99.90;;;;;;5032410;28;20053;-73
2024/01/05 00:30:33;;;;;;;14.23;7.78;;;3.10;99.90;;;;;;5032422;28;20144;-73
2024/01/05 00:32:58;;;;;;;14.45;7.47;;;3.20;99.90;;;;;;5032319;28;20037;-73
2024/01/05 00:35:24;;;;;;;15.82;7.88;;;3.20;99.90;;;;;;5032277;28;20040;-73
2024/01/05 00:37:49;;;;;;;15.75;8.50;;;3.20;99.90;;;;;;5031866;28;20084;-73
2024/01/05 00:40:15;;;;;;;12.80;7.70;;;3.10;99.90;;;;;;5031963;28;20036;-73
2024/01/05 00:42:41;;;;;;;14.55;7.78;;;3.20;99.90;;;;;;5032359;28;20079;-73
2024/01/05 00:45:07;;;;;;;14.25;7.95;;;3.20;99.90;;;;;;5032225;28;20049;-73
2024/01/05 00:47:32;;;;;;;15.50;8.73;;;3.20;99.90;;;;;;5031738;28;20041;-73
2024/01/05 00:49:58;;;;;;;12.95;7.32;;;3.10;99.90;;;;;;5032006;28;20072;-73
2024/01/05 00:52:23;;;;;;;15.15;7.82;;;3.20;99.90;;;;;;5031856;28;20107;-73
2024/01/05 00:54:49;;;;;;;15.80;8.05;;;3.20;99.90;;;;;;5031874;28;20049;-73
2024/01/05 00:57:15;;;;;;;13.98;7.85;;;3.10;99.90;;;;;;5014402;28;20049;-73
2024/01/05 00:59:40;;;;;;;12.93;7.72;;;3.20;99.90;;;;;;5031467;28;20091;-73
2024/01/05 01:02:06;;;;;;;11.25;6.85;;;3.10;99.90;;;;;;5032001;28;20163;-73
2024/01/05 01:04:31;;;;;;;15.80;7.00;;;3.20;99.90;;;;;;5031901;28;20401;-73
2024/01/05 01:06:57;;;;;;;12.43;7.25;;;3.20;99.90;;;;;;5031694;28;20083;-73
2024/01/05 01:09:22;;;;;;;12.38;6.32;;;3.10;99.90;;;;;;5031459;28;20037;-73
2024/01/05 01:11:51;;;;;;;13.95;7.30;;;3.00;99.90;;;;;;5014098;28;20512;-73
2024/01/05 01:14:17;;;;;;;14.10;7.10;;;3.20;99.90;;;;;;5031627;28;20528;-73
2024/01/05 01:16:43;;;;;;;18.58;8.50;;;3.10;99.90;;;;;;5031621;28;20052;-73
2024/01/05 01:19:08;;;;;;;21.23;7.15;;;3.10;99.90;;;;;;5031397;28;20409;-73
2024/01/05 01:21:34;;;;;;;13.68;7.25;;;3.10;99.90;;;;;;5031033;28;20123;-73
2024/01/05 01:24:00;;;;;;;17.55;7.88;;;3.20;99.90;;;;;;5031476;28;20045;-73
2024/01/05 01:26:25;;;;;;;12.95;7.03;;;3.00;99.90;;;;;;5031637;28;20033;-73
2024/01/05 01:28:51;;;;;;;15.25;7.32;;;3.00;99.90;;;;;;5013975;28;20510;-73
2024/01/05 01:31:17;;;;;;;14.68;6.82;;;3.10;99.90;;;;;;5031514;28;20493;-73
2024/01/05 01:33:42;;;;;;;14.80;7.18;;;3.10;99.90;;;;;;5031603;28;20152;-73
2024/01/05 01:36:08;;;;;;;16.52;7.47;;;3.10;99.90;;;;;;5031501;28;20044;-73
2024/01/05 01:38:34;;;;;;;11.82;6.25;;;3.30;99.90;;;;;;5031053;28;20049;-73
2024/01/05 01:41:00;;;;;;;12.82;7.47;;;3.00;99.90;;;;;;5031547;28;20095;-73
2024/01/05 01:43:26;;;;;;;18.00;7.28;;;3.20;99.90;;;;;;5031321;28;20048;-73
2024/01/05 01:45:55;;;;;;;15.30;8.13;;;3.10;99.90;;;;;;5031451;28;20033;-73
2024/01/05 01:48:20;;;;;;;15.90;7.18;;;3.20;99.90;;;;;;5013319;28;20520;-73
2024/01/05 01:50:48;;;;;;;13.32;7.35;;;3.20;99.90;;;;;;5031224;28;20053;-73
2024/01/05 01:53:16;;;;;;;14.75;8.00;;;3.30;99.90;;;;;;5031231;28;20117;-73
2024/01/05 01:55:42;;;;;;;14.90;6.93;;;3.20;99.90;;;;;;5031400;28;20049;-73
2024/01/05 01:58:08;;;;;;;15.48;7.40;;;3.20;99.90;;;;;;5031070;28;20064;-73
2024/01/05 02:00:34;;;;;;;14.43;6.65;;;3.00;99.90;;;;;;5031166;28;20037;-73
2024/01/05 02:03:03;;;;;;;14.52;7.75;;;3.00;99.90;;;;;;5031296;28;20041;-73
2024/01/05 02:05:29;;;;;;;12.57;6.65;;;3.20;99.90;;;;;;5031077;28;20135;-73
2024/01/05 02:07:56;;;;;;;20.13;7.15;;;3.20;99.90;;;;;;5031154;28;20120;-73
2024/01/05 02:10:22;;;;;;;13.68;7.93;;;3.20;99.90;;;;;;5031322;28;20091;-73
2024/01/05 02:12:47;;;;;;;13.10;7.88;;;3.20;99.90;;;;;;5031304;28;20457;-73
2024/01/05 02:15:13;;;;;;;15.43;7.05;;;3.00;99.90;;;;;;5031174;28;20112;-73
2024/01/05 02:17:39;;;;;;;21.20;8.15;;;3.10;99.90;;;;;;5030917;28;20404;-73
2024/01/05 02:20:05;;;;;;;15.82;6.88;;;3.00;99.90;;;;;;5030648;28;20064;-73
2024/01/05 02:22:34;;;;;;;18.75;9.10;;;3.10;99.90;;;;;;5031248;28;20409;-73
2024/01/05 02:25:01;;;;;;;16.42;8.02;;;3.20;99.90;;;;;;5031069;28;20030;-73
2024/01/05 02:27:26;;;;;;;16.05;7.35;;;3.00;99.90;;;;;;5030929;28;20068;-73
2024/01/05 02:29:52;;;;;;;16.48;7.65;;;3.00;99.90;;;;;;5030831;28;20076;-73
2024/01/05 02:32:18;;;;;;;14.00;7.95;;;2.80;99.90;;;;;;5030981;28;20033;-73
2024/01/05 02:34:44;;;;;;;13.63;7.60;;;2.90;99.90;;;;;;5033001;28;20129;-73
2024/01/05 02:37:09;;;;;;;18.25;7.95;;;3.10;99.90;;;;;;5016899;28;20053;-73
2024/01/05 02:39:35;;;;;;;17.23;9.32;;;2.90;99.90;;;;;;5034205;28;20038;-73
2024/01/05 02:42:01;;;;;;;14.43;7.18;;;2.80;99.90;;;;;;5034348;28;20543;-73
2024/01/05 02:44:26;;;;;;;15.65;8.02;;;3.10;99.90;;;;;;5016775;28;20211;-73
2024/01/05 02:46:52;;;;;;;20.35;9.57;;;2.80;99.90;;;;;;5034546;28;20123;-73
2024/01/05 02:49:18;;;;;;;13.00;8.23;;;2.80;99.90;;;;;;5033862;28;20038;-73
2024/01/05 02:51:43;;;;;;;21.98;10.05;;;3.10;99.90;;;;;;5034301;28;20157;-73
2024/01/05 02:54:10;;;;;;;20.10;10.13;;;2.90;99.90;;;;;;5016326;28;20519;-73
2024/01/05 02:56:35;;;;;;;20.50;9.32;;;2.80;99.90;;;;;;5034157;28;20059;-74
2024/01/05 02:59:06;;;;;;;19.55;9.07;;;2.90;99.90;;;;;;5032816;28;20501;-73
2024/01/05 03:01:32;;;;;;;18.35;9.68;;;3.00;99.90;;;;;;5087071;22;20435;-79
2024/01/05 03:04:00;;;;;;;24.63;11.00;;;2.80;99.90;;;;;;5060594;28;20128;-79
2024/01/05 03:06:26;;;;;;;20.27;9.93;;;3.00;99.90;;;;;;5046135;28;20047;-79
2024/01/05 03:08:51;;;;;;;19.90;9.80;;;2.90;99.90;;;;;;5061012;28;20100;-78
2024/01/05 03:11:17;;;;;;;20.67;10.27;;;2.80;99.90;;;;;;5061349;28;20561;-78
2024/01/05 03:13:43;;;;;;;17.58;9.65;;;2.80;99.90;;;;;;5062053;28;20036;-79
2024/01/05 03:16:08;;;;;;;23.48;10.40;;;3.00;99.90;;;;;;5062287;28;20123;-78
2024/01/05 03:18:34;;;;;;;22.17;10.45;;;3.00;99.90;;;;;;5045943;28;20052;-78
2024/01/05 03:21:00;;;;;;;20.70;9.73;;;2.90;99.90;;;;;;5062077;28;20123;-78
2024/01/05 03:23:25;;;;;;;21.35;10.55;;;2.80;99.90;;;;;;5060459;28;20392;-78
2024/01/05 03:25:51;;;;;;;15.95;8.75;;;2.80;99.90;;;;;;5045050;28;20531;-78
2024/01/05 03:28:17;;;;;;;19.48;9.85;;;2.80;99.90;;;;;;5061260;28;20127;-78
2024/01/05 03:30:43;;;;;;;20.25;10.88;;;3.00;99.90;;;;;;5062011;28;20424;-78
2024/01/05 03:33:09;;;;;;;19.80;10.35;;;2.90;99.90;;;;;;5061660;28;20036;-78
2024/01/05 03:35:36;;;;;;;24.67;11.57;;;3.00;99.90;;;;;;5062857;28;20388;-79
2024/01/05 03:38:02;;;;;;;19.98;10.02;;;2.80;99.90;;;;;;5062908;28;20066;-78
2024/01/05 03:40:27;;;;;;;23.73;10.82;;;3.00;99.90;;;;;;5060695;28;20119;-79
2024/01/05 03:42:53;;;;;;;22.23;10.25;;;3.10;99.90;;;;;;5062001;28;20051;-78
2024/01/05 03:45:18;;;;;;;21.10;10.05;;;2.80;99.90;;;;;;5060229;28;20036;-78
2024/01/05 03:47:44;;;;;;;23.45;11.38;;;2.90;99.90;;;;;;5060164;28;20036;-78
2024/01/05 03:50:10;;;;;;;19.92;9.57;;;3.10;99.90;;;;;;5060650;28;20045;-78
2024/01/05 03:52:36;;;;;;;21.17;10.70;;;3.10;99.90;;;;;;5060151;28;20129;-78
2024/01/05 03:55:02;;;;;;;22.42;10.85;;;2.80;99.90;;;;;;5061491;28;20471;-79
2024/01/05 03:57:28;;;;;;;25.27;11.40;;;2.90;99.90;;;;;;5061816;28;20033;-78
2024/01/05 03:59:53;;;;;;;17.45;9.38;;;2.90;99.90;;;;;;5061092;28;20447;-78
2024/01/05 04:02:19;;;;;;;23.00;9.75;;;3.00;99.90;;;;;;5061064;28;20032;-78
2024/01/05 04:04:45;;;;;;;21.27;9.77;;;3.00;99.90;;;;;;5060387;28;20032;-78
2024/01/05 04:07:10;;;;;;;19.42;10.13;;;3.10;99.90;;;;;;5060245;28;20488;-78
2024/01/05 04:09:36;;;;;;;22.33;10.07;;;2.70;99.90;;;;;;5059006;28;20040;-78
2024/01/05 04:12:02;;;;;;;20.52;10.00;;;2.80;99.90;;;;;;5058127;28;20123;-78
2024/01/05 04:14:28;;;;;;;18.25;9.50;;;3.10;99.90;;;;;;5058952;28;20048;-78
2024/01/05 04:16:54;;;;;;;22.75;11.90;;;3.00;99.90;;;;;;5059086;28;20052;-78
2024/01/05 04:19:19;;;;;;;21.05;10.80;;;3.10;99.90;;;;;;5056239;28;20040;-77
2024/01/05 04:21:45;;;;;;;22.17;10.38;;;3.20;99.90;;;;;;5056401;28;20040;-77
2024/01/05 04:24:11;;;;;;;19.42;8.85;;;2.70;99.90;;;;;;5056670;28;20058;-78
2024/01/05 04:26:37;;;;;;;17.35;9.20;;;3.10;99.90;;;;;;5057502;28;20043;-77
2024/01/05 04:29:02;;;;;;;18.08;8.82;;;2.90;99.90;;;;;;5039901;28;20049;-78
2024/01/05 04:31:28;;;;;;;17.42;9.68;;;3.00;99.90;;;;;;5058859;28;20094;-78
2024/01/05 04:33:55;;;;;;;15.57;8.73;;;3.00;99.90;;;;;;5058593;28;20132;-78
2024/01/05 04:36:20;;;;;;;20.77;9.05;;;2.90;99.90;;;;;;5057965;28;20032;-78
2024/01/05 04:38:46;;;;;;;19.60;9.57;;;3.10;99.90;;;;;;5058542;28;20097;-77
2024/01/05 04:41:13;;;;;;;19.63;9.07;;;3.10;99.90;;;;;;5055643;28;20035;-78
2024/01/05 04:43:39;;;;;;;16.38;8.32;;;3.20;99.90;;;;;;5039450;28;20029;-78
2024/01/05 04:46:05;;;;;;;18.70;9.20;;;3.10;99.90;;;;;;5040837;28;20059;-78
2024/01/05 04:48:31;;;;;;;17.25;8.68;;;3.20;99.90;;;;;;5056079;28;20045;-78
2024/01/05 04:50:57;;;;;;;17.35;8.77;;;3.20;99.90;;;;;;5055768;28;20041;-78
2024/01/05 04:53:22;;;;;;;18.33;9.07;;;2.90;99.90;;;;;;5056608;28;20561;-77
2024/01/05 04:55:48;;;;;;;20.20;9.30;;;3.10;99.90;;;;;;5059816;28;20041;-78
2024/01/05 04:58:13;;;;;;;12.68;7.68;;;2.80;99.90;;;;;;5041764;28;20101;-79
2024/01/05 05:00:39;;;;;;;15.55;8.63;;;3.00;99.90;;;;;;5059459;28;20067;-78
2024/01/05 05:03:05;;;;;;;12.77;7.63;;;3.10;99.90;;;;;;5060388;28;20048;-78
2024/01/05 05:05:31;;;;;;;12.90;7.72;;;3.10;99.90;;;;;;5042943;28;20506;-79
2024/01/05 05:07:57;;;;;;;12.25;7.38;;;2.90;99.90;;;;;;5059691;28;20051;-78
2024/01/05 05:10:23;;;;;;;16.45;7.07;;;2.80;99.90;;;;;;5057554;28;20037;-78
2024/01/05 05:12:48;;;;;;;13.80;8.35;;;2.80;99.90;;;;;;5058738;28;20344;-78
2024/01/05 05:15:14;;;;;;;14.00;7.88;;;2.80;99.90;;;;;;5056605;28;20518;-78
2024/01/05 05:17:40;;;;;;;13.32;7.95;;;3.20;99.90;;;;;;5039819;28;20036;-77
2024/01/05 05:20:06;;;;;;;17.08;8.15;;;3.00;99.90;;;;;;5054110;28;20044;-77
2024/01/05 05:22:33;;;;;;;16.60;8.00;;;3.20;99.90;;;;;;5072484;28;20086;-77
2024/01/05 05:24:58;;;;;;;15.80;8.20;;;3.00;99.90;;;;;;5057618;28;20063;-77
2024/01/05 05:27:24;;;;;;;14.13;6.95;;;3.20;99.90;;;;;;5056972;28;20128;-77
2024/01/05 05:29:50;;;;;;;15.20;8.32;;;2.90;99.90;;;;;;5056361;28;20384;-78
2024/01/05 05:32:15;;;;;;;16.70;6.88;;;2.90;99.90;;;;;;5038970;28;20048;-77
2024/01/05 05:34:43;;;;;;;13.50;8.10;;;2.90;99.90;;;;;;5058270;28;20110;-78
2024/01/05 05:37:09;;;;;;;14.88;7.90;;;3.10;99.90;;;;;;5056817;28;20051;-77
2024/01/05 05:39:34;;;;;;;13.25;6.97;;;3.00;99.90;;;;;;5057472;28;20044;-78
2024/01/05 05:42:00;;;;;;;15.18;8.07;;;2.90;99.90;;;;;;5041997;28;20068;-78
2024/01/05 05:44:26;;;;;;;18.08;8.98;;;2.90;99.90;;;;;;5058466;28;20047;-78
2024/01/05 05:46:52;;;;;;;15.40;7.78;;;3.00;99.90;;;;;;5057870;28;20032;-78
2024/01/05 05:49:17;;;;;;;13.38;8.15;;;3.00;99.90;;;;;;5042038;28;20044;-78
2024/01/05 05:51:44;;;;;;;16.17;8.88;;;3.00;99.90;;;;;;5041779;28;20154;-78
2024/01/05 05:54:09;;;;;;;16.92;9.32;;;3.00;99.90;;;;;;5058930;28;20079;-79
2024/01/05 05:56:35;;;;;;;14.20;7.95;;;3.40;99.90;;;;;;5058413;28;20436;-78
2024/01/05 05:59:01;;;;;;;17.00;9.10;;;3.00;99.90;;;;;;5057723;28;20093;-78
2024/01/05 06:01:26;;;;;;;19.70;9.13;;;3.00;99.90;;;;;;5041453;28;20464;-79
2024/01/05 06:03:52;;;;;;;21.08;9.50;;;3.20;99.90;;;;;;5057903;28;20028;-78
2024/01/05 06:06:22;;;;;;;16.85;9.48;;;2.90;99.90;;;;;;5058022;28;20591;-78
2024/01/05 06:08:48;;;;;;;14.60;8.77;;;3.30;99.90;;;;;;5060137;28;20045;-78
2024/01/05 06:11:18;;;;;;;17.38;9.43;;;3.30;99.90;;;;;;5061726;28;20067;-78
2024/01/05 06:13:47;;;;;;;16.63;9.52;;;3.10;99.90;;;;;;5044911;28;20400;-78
2024/01/05 06:16:13;;;;;;;18.20;8.25;;;3.40;99.90;;;;;;5062033;28;20048;-78
2024/01/05 06:18:40;;;;;;;16.88;8.70;;;3.30;99.90;;;;;;5060844;28;20041;-78
2024/01/05 06:21:05;;;;;;;14.82;8.95;;;3.40;99.90;;;;;;5060601;28;20051;-78
2024/01/05 06:23:32;;;;;;;20.05;10.55;;;3.40;99.90;;;;;;5044872;28;20037;-78
2024/01/05 06:25:57;;;;;;;17.98;8.85;;;3.10;99.90;;;;;;5060909;28;20086;-77
2024/01/05 06:28:23;;;;;;;17.58;9.10;;;3.40;99.90;;;;;;5043754;28;20040;-78
2024/01/05 06:30:49;;;;;;;16.05;9.75;;;3.30;99.90;;;;;;5061071;28;20036;-78
2024/01/05 06:33:15;;;;;;;15.75;8.38;;;3.50;99.90;;;;;;5078688;28;20396;-78
2024/01/05 06:35:40;;;;;;;18.17;10.68;;;3.20;99.90;;;;;;5060391;28;20036;-78
2024/01/05 06:38:06;;;;;;;16.45;9.43;;;3.10;99.90;;;;;;5059926;28;20076;-78
2024/01/05 06:40:32;;;;;;;15.27;9.75;;;3.10;99.90;;;;;;5061056;28;20044;-78
2024/01/05 06:42:57;;;;;;;18.40;9.20;;;3.40;99.90;;;;;;5061351;28;20429;-79
2024/01/05 06:45:23;;;;;;;17.00;9.65;;;3.30;99.90;;;;;;5060676;28;20055;-78
2024/01/05 06:47:49;;;;;;;14.57;8.18;;;3.50;99.90;;;;;;5059807;28;20561;-77
2024/01/05 06:50:15;;;;;;;17.15;8.90;;;3.40;99.90;;;;;;5060216;28;20067;-78
2024/01/05 06:52:41;;;;;;;16.52;9.38;;;3.30;99.90;;;;;;5077320;28;20060;-78
2024/01/05 06:55:07;;;;;;;15.65;8.23;;;3.30;99.90;;;;;;5059454;28;20036;-78
2024/01/05 06:57:35;;;;;;;17.25;8.93;;;3.50;99.90;;;;;;5060275;28;20052;-78
2024/01/05 07:00:03;;;;;;;17.88;9.85;;;3.30;99.90;;;;;;5044298;28;20033;-78
2024/01/05 07:02:29;;;;;;;18.95;9.63;;;3.40;99.90;;;;;;5045133;28;20123;-78
2024/01/05 07:04:54;;;;;;;15.80;8.98;;;3.50;99.90;;;;;;5076810;28;20515;-78
2024/01/05 07:07:20;;;;;;;15.38;7.90;;;3.40;99.90;;;;;;5059676;28;20041;-78
2024/01/05 07:09:45;;;;;;;18.77;10.18;;;3.30;99.90;;;;;;5061797;28;20458;-78
2024/01/05 07:12:11;;;;;;;18.05;9.32;;;3.40;99.90;;;;;;5060014;28;20135;-78
2024/01/05 07:14:37;;;;;;;17.38;10.05;;;3.50;99.90;;;;;;5043451;28;20048;-78
2024/01/05 07:17:03;;;;;;;20.27;10.52;;;3.20;99.90;;;;;;5058654;28;20049;-78
2024/01/05 07:19:28;;;;;;;21.42;11.55;;;3.40;99.90;;;;;;5056422;28;20127;-78
2024/01/05 07:21:54;;;;;;;20.83;11.23;;;3.60;99.90;;;;;;5058646;28;20094;-78
2024/01/05 07:24:20;;;;;;;18.90;10.77;;;3.40;99.90;;;;;;5058548;28;20043;-77
2024/01/05 07:26:45;;;;;;;19.95;11.05;;;3.60;99.90;;;;;;5059335;28;20032;-78
2024/01/05 07:29:11;;;;;;;23.92;11.82;;;3.60;99.90;;;;;;5057712;28;20044;-78
2024/01/05 07:31:37;;;;;;;20.20;11.00;;;3.30;99.90;;;;;;5058957;28;20492;-78
2024/01/05 07:34:03;;;;;;;24.05;12.15;;;3.70;99.90;;;;;;5040915;28;20041;-78
2024/01/05 07:36:29;;;;;;;17.90;10.30;;;3.30;99.90;;;;;;5058550;28;20068;-78
2024/01/05 07:38:59;;;;;;;20.58;11.02;;;3.40;99.90;;;;;;5057891;28;20052;-79
2024/01/05 07:41:26;;;;;;;22.10;12.02;;;3.70;99.90;;;;;;5041103;28;20410;-77
2024/01/05 07:43:52;;;;;;;21.80;11.65;;;3.40;99.90;;;;;;5066960;28;20054;-78
2024/01/05 07:46:19;;;;;;;22.90;11.68;;;3.80;99.90;;;;;;5064763;28;20032;-78
2024/01/05 07:48:46;;;;;;;19.80;11.32;;;3.50;99.90;;;;;;5041044;28;20036;-79
2024/01/05 07:51:13;;;;;;;26.20;13.27;;;3.60;99.90;;;;;;5057721;28;20041;-78
2024/01/05 07:53:38;;;;;;;25.52;14.07;;;3.80;99.90;;;;;;5040572;28;20094;-78
2024/01/05 07:56:05;;;;;;;29.25;13.95;;;3.40;99.90;;;;;;5041321;28;20044;-77
2024/01/05 07:58:31;;;;;;;26.92;13.77;;;3.40;99.90;;;;;;5056142;28;20120;-77
2024/01/05 08:00:57;;;;;;;27.05;14.38;;;3.80;99.90;;;;;;5055269;28;20118;-77
2024/01/05 08:03:23;;;;;;;26.90;14.35;;;3.80;99.90;;;;;;5055811;28;20041;-77
2024/01/05 08:05:49;;;;;;;26.40;13.40;;;3.60;99.90;;;;;;5055887;28;20086;-77
2024/01/05 08:08:15;;;;;;;24.77;13.38;;;3.80;99.90;;;;;;5040403;28;20044;-77
2024/01/05 08:10:40;;;;;;;25.85;13.93;;;3.90;99.90;;;;;;5041601;28;20036;-76
2024/01/05 08:13:06;;;;;;;28.77;15.13;;;3.50;99.90;;;;;;5058260;28;20041;-77
2024/01/05 08:15:32;;;;;;;26.75;14.63;;;3.80;99.90;;;;;;5060409;28;20077;-77
2024/01/05 08:17:58;;;;;;;34.10;15.18;;;3.80;99.90;;;;;;5055784;28;20040;-77
2024/01/05 08:20:24;;;;;;;29.15;15.25;;;3.60;99.90;;;;;;5054738;28;20431;-76
2024/01/05 08:22:50;;;;;;;31.52;13.85;;;3.70;99.90;;;;;;5036759;28;20041;-76
2024/01/05 08:25:15;;;;;;;27.13;14.13;;;3.50;99.90;;;;;;5039261;28;20119;-77
2024/01/05 08:27:42;;;;;;;29.13;15.98;;;3.80;99.90;;;;;;5037598;28;20491;-76
2024/01/05 08:30:11;;;;;;;26.35;13.50;;;3.70;99.90;;;;;;5055092;28;20082;-76
2024/01/05 08:32:38;;;;;;;29.35;15.07;;;4.00;99.90;;;;;;5053811;28;20106;-77
2024/01/05 08:35:06;;;;;;;29.70;14.23;;;3.90;99.90;;;;;;5036938;28;20041;-76
2024/01/05 08:37:32;;;;;;;27.65;13.13;;;4.00;99.90;;;;;;5053747;28;20475;-77
2024/01/05 08:39:57;;;;;;;30.55;13.63;;;3.80;99.90;;;;;;5054798;28;20087;-73
2024/01/05 08:42:23;;;;;;;26.45;14.10;;;3.70;99.90;;;;;;5053974;28;20040;-73
2024/01/05 08:44:50;;;;;;;29.00;15.15;;;3.80;99.90;;;;;;5054099;28;20548;-73
2024/01/05 08:47:16;;;;;;;26.63;13.88;;;3.80;99.90;;;;;;5053772;28;20048;-73
2024/01/05 08:49:42;;;;;;;25.88;14.32;;;4.10;99.90;;;;;;5053812;28;20044;-73
2024/01/05 08:52:08;;;;;;;28.00;13.65;;;3.70;99.90;;;;;;5053943;28;20044;-73
2024/01/05 08:54:33;;;;;;;23.00;12.88;;;4.00;99.90;;;;;;5053976;28;20040;-73
2024/01/05 08:56:59;;;;;;;29.33;14.38;;;3.80;99.90;;;;;;5053696;28;20047;-73
2024/01/05 08:59:25;;;;;;;25.52;13.15;;;4.10;99.90;;;;;;5053703;28;20041;-73
2024/01/05 09:01:52;;;;;;;26.58;13.30;;;3.70;99.90;;;;;;5053867;28;20049;-73
2024/01/05 09:04:17;;;;;;;24.85;12.52;;;4.10;99.90;;;;;;5053756;28;20079;-73
2024/01/05 09:06:44;;;;;;;28.08;13.18;;;3.90;99.90;;;;;;5053544;28;20043;-72
2024/01/05 09:09:10;;;;;;;22.67;12.13;;;3.70;99.90;;;;;;5071606;28;20047;-73
2024/01/05 09:11:36;;;;;;;25.67;13.25;;;3.90;99.90;;;;;;5053560;28;20139;-73
2024/01/05 09:14:02;;;;;;;24.15;13.20;;;3.90;99.90;;;;;;5053618;28;20048;-74
2024/01/05 09:16:28;;;;;;;20.55;11.65;;;3.80;99.90;;;;;;5053876;28;20036;-74
2024/01/05 09:18:53;;;;;;;26.65;13.07;;;4.30;99.90;;;;;;5052931;28;20441;-76
2024/01/05 09:21:19;;;;;;;26.73;13.30;;;4.30;99.90;;;;;;5052617;28;20111;-76
2024/01/05 09:23:45;;;;;;;21.30;11.65;;;4.10;99.90;;;;;;5054059;28;20036;-76
2024/01/05 09:26:14;;;;;;;25.63;11.75;;;4.40;99.90;;;;;;5036591;28;20094;-75
2024/01/05 09:28:40;;;;;;;21.73;12.05;;;4.10;99.90;;;;;;5052883;28;20047;-75
2024/01/05 09:31:06;;;;;;;21.50;11.80;;;4.20;99.90;;;;;;5053170;28;20349;-74
2024/01/05 09:33:32;;;;;;;27.63;13.13;;;4.40;99.90;;;;;;5052215;28;20032;-75
2024/01/05 09:35:57;;;;;;;24.23;12.30;;;4.20;99.90;;;;;;5052305;28;20033;-75
2024/01/05 09:38:23;;;;;;;24.83;12.70;;;4.20;99.90;;;;;;5052144;28;20052;-74
2024/01/05 09:40:52;;;;;;;23.60;12.25;;;4.20;99.90;;;;;;5052489;28;20161;-75
2024/01/05 09:43:21;;;;;;;23.67;12.85;;;4.30;99.90;;;;;;5054744;28;20040;-74
2024/01/05 09:45:50;;;;;;;27.17;13.05;;;4.40;99.90;;;;;;5040300;28;20041;-75
2024/01/05 09:48:19;;;;;;;21.48;11.93;;;4.40;99.90;;;;;;5055596;28;20028;-74
2024/01/05 09:50:53;;;;;;;25.38;13.13;;;4.60;99.90;;;;;;5053939;28;20067;-74
2024/01/05 09:53:19;;;;;;;;;;;4.30;99.90;;;;;;5056417;28;20033;-74
2024/01/05 09:55:49;;;;;;;22.27;10.93;;;4.60;99.90;;;;;;5039930;28;19924;-74
2024/01/05 09:58:16;;;;;;;25.05;12.48;;;4.70;99.90;;;;;;5055861;28;20399;-74
2024/01/05 10:00:45;;;;;;;21.65;11.90;;;4.70;99.90;;;;;;5055938;28;20036;-76
2024/01/05 10:03:17;;;;;;;27.80;13.07;;;4.50;99.90;;;;;;5074305;28;20111;-76
2024/01/05 10:05:43;;;;;;;21.88;10.93;;;4.70;99.90;;;;;;5040002;28;20044;-75
2024/01/05 10:08:08;;;;;;;21.50;10.50;;;4.90;99.90;;;;;;5056333;28;20040;-76
2024/01/05 10:10:53;;;;;;;28.02;12.25;;;4.70;99.90;;;;;;5056557;28;20033;-75
2024/01/05 10:13:19;;;;;;;24.08;11.13;;;4.60;99.90;;;;;;5056656;28;20371;-75
2024/01/05 10:15:55;;;;;;;22.48;12.27;;;4.80;99.90;;;;;;5039826;28;20124;-76
2024/01/05 10:18:21;;;;;;;19.58;10.43;;;4.90;99.90;;;;;;5056100;28;20044;-75
2024/01/05 10:20:47;;;;;;;24.02;10.55;;;5.00;99.90;;;;;;5056175;28;20528;-75
2024/01/05 10:23:15;;;;;;;21.13;10.77;;;4.90;99.90;;;;;;5039647;28;20083;-75
2024/01/05 10:25:41;;;;;;;18.48;10.63;;;4.80;99.90;;;;;;5056114;28;20127;-75
2024/01/05 10:28:26;;;;;;;21.23;10.85;;;4.60;99.90;;;;;;5039888;28;20075;-75
2024/01/05 10:30:52;;;;;;;18.42;10.50;;;4.70;99.90;;;;;;5056035;28;20433;-75
2024/01/05 10:33:21;;;;;;;21.75;10.20;;;4.80;99.90;;;;;;5056141;28;20388;-75
2024/01/05 10:35:47;;;;;;;16.42;9.15;;;5.00;99.90;;;;;;5039351;28;20037;-75
2024/01/05 10:38:16;;;;;;;20.45;10.05;;;4.90;99.90;;;;;;5055760;28;20173;-75
2024/01/05 10:40:42;;;;;;;18.35;10.00;;;5.10;99.90;;;;;;5056032;28;20049;-76
2024/01/05 10:43:09;;;;;;;20.33;10.75;;;5.10;99.90;;;;;;5056055;28;20411;-75
2024/01/05 10:45:36;;;;;;;18.83;10.50;;;4.80;99.90;;;;;;5055905;28;20518;-74
2024/01/05 10:48:10;;;;;;;20.42;10.75;;;5.00;99.90;;;;;;5055439;28;20044;-74
2024/01/05 10:50:37;;;;;;;19.10;10.70;;;4.80;99.90;;;;;;5056059;28;20059;-75
2024/01/05 10:53:08;;;;;;;22.83;11.38;;;5.00;99.90;;;;;;5055628;28;20047;-74
2024/01/05 10:55:36;;;;;;;21.73;11.88;;;4.80;99.90;;;;;;5054560;28;20040;-74
2024/01/05 10:58:01;;;;;;;22.63;11.75;;;5.10;99.90;;;;;;5055460;28;20115;-74
2024/01/05 11:00:27;;;;;;;19.05;10.80;;;5.10;99.90;;;;;;5038692;28;20440;-74
2024/01/05 11:03:18;;;;;;;24.30;12.48;;;5.00;99.90;;;;;;5055612;28;20045;-74
2024/01/05 11:05:45;;;;;;;20.58;11.60;;;5.00;99.90;;;;;;5055678;28;20476;-74
2024/01/05 11:08:37;;;;;;;19.73;11.07;;;4.80;99.90;;;;;;5055364;28;20127;-74
2024/01/05 11:11:19;;;;;;;20.60;10.45;;;4.90;99.90;;;;;;5055453;28;20106;-74
2024/01/05 11:13:56;;;;;;;21.05;11.23;;;4.90;99.90;;;;;;5073351;28;20040;-75
2024/01/05 11:16:22;;;;;;;20.00;10.65;;;5.10;99.90;;;;;;5055298;28;20085;-75
2024/01/05 11:18:55;;;;;;;26.05;11.35;;;5.00;99.90;;;;;;5038150;28;20041;-74
2024/01/05 11:21:25;;;;;;;21.10;10.77;;;4.90;99.90;;;;;;5054880;28;20404;-74
2024/01/05 11:23:55;;;;;;;22.23;10.60;;;5.00;99.90;;;;;;5054922;28;20449;-73
2024/01/05 11:26:39;;;;;;;21.73;11.25;;;5.20;99.90;;;;;;5054775;28;20041;-74
2024/01/05 11:29:04;;;;;;;20.15;10.77;;;5.10;99.90;;;;;;5054781;28;20045;-74
2024/01/05 11:31:45;;;;;;;21.92;11.40;;;5.40;99.90;;;;;;5055280;28;20385;-74
2024/01/05 11:34:30;;;;;;;20.30;11.20;;;5.30;99.90;;;;;;5055141;28;20070;-75
2024/01/05 11:36:57;;;;;;;21.70;11.48;;;5.00;99.90;;;;;;5054577;28;20397;-75
2024/01/05 11:39:41;;;;;;;19.42;11.27;;;5.10;99.90;;;;;;5054443;28;20036;-74
2024/01/05 11:42:07;;;;;;;23.40;11.27;;;5.10;99.90;;;;;;5054572;28;20036;-74
2024/01/05 11:44:34;;;;;;;23.60;11.15;;;5.30;99.90;;;;;;5038279;28;20085;-74
2024/01/05 11:47:03;;;;;;;22.05;11.88;;;5.50;99.90;;;;;;5054469;28;20504;-74
2024/01/05 11:49:41;;;;;;;22.52;11.93;;;5.20;99.90;;;;;;5054075;28;20040;-74
2024/01/05 11:52:07;;;;;;;21.70;10.75;;;5.40;99.90;;;;;;5072640;28;20048;-75
2024/01/05 11:54:36;;;;;;;21.00;13.02;;;5.10;99.90;;;;;;5055072;28;20045;-75
2024/01/05 11:57:03;;;;;;;22.88;11.68;;;5.40;99.90;;;;;;5054499;28;20167;-74
2024/01/05 11:59:29;;;;;;;20.60;11.30;;;5.30;99.90;;;;;;5054399;28;20044;-75
2024/01/05 12:01:55;;;;;;;22.50;10.52;;;5.20;99.90;;;;;;5054403;28;20048;-74
2024/01/05 12:04:20;;;;;;;21.48;10.73;;;5.00;99.90;;;;;;5037641;28;20348;-74
2024/01/05 12:06:52;;;;;;;22.30;11.77;;;5.40;99.90;;;;;;5053616;28;20091;-75
2024/01/05 12:09:19;;;;;;;20.17;11.35;;;5.30;99.90;;;;;;5051755;28;20032;-75
2024/01/05 12:11:45;;;;;;;19.30;9.85;;;5.40;99.90;;;;;;5053433;28;20044;-74
2024/01/05 12:14:11;;;;;;;24.48;12.15;;;5.30;99.90;;;;;;5053036;28;20036;-74
2024/01/05 12:16:37;;;;;;;22.73;12.07;;;5.50;99.90;;;;;;5053321;28;20044;-74
2024/01/05 12:19:03;;;;;;;22.98;12.32;;;5.30;99.90;;;;;;5053415;28;20124;-74
2024/01/05 12:21:28;;;;;;;23.25;12.20;;;5.30;99.90;;;;;;5053011;28;20071;-76
2024/01/05 12:23:55;;;;;;;22.65;13.02;;;5.30;99.90;;;;;;5043233;28;20052;-75
2024/01/05 12:26:21;;;;;;;24.38;12.95;;;5.40;99.90;;;;;;5044900;28;20025;-74
2024/01/05 12:28:48;;;;;;;22.10;12.75;;;5.20;99.90;;;;;;5053594;28;20067;-74
2024/01/05 12:31:14;;;;;;;19.85;12.93;;;5.50;99.90;;;;;;5051184;28;20525;-75
2024/01/05 12:33:42;;;;;;;22.85;12.88;;;5.40;99.90;;;;;;5031882;28;20482;-74
2024/01/05 12:36:14;;;;;;;26.35;13.00;;;5.10;99.90;;;;;;5045086;28;20135;-74
2024/01/05 12:38:40;;;;;;;26.35;13.40;;;5.30;99.90;;;;;;5043719;28;20093;-74
2024/01/05 12:41:12;;;;;;;27.60;13.55;;;5.20;99.90;;;;;;5053631;28;20744;-74